Time;durP1;ratioP1;P1;durP2;ratioP2;P2;SDS_P1;SDS_P2;PMS_P1;PMS_P2;Temp;Humidity;BMP_temperature;BMP_pressure;BME280_temperature;BME280_humidity;BME280_pressure;Samples;Min_cycle;Max_cycle;Signal;HPM_P1;HPM_P2
2024/01/30 00:00:31;;;;;;;;;;;;;;;2.96;63.60;102857.91;5095807;28;19912;-77
2024/01/30 00:03:21;;;;;;;;;;;;;;;2.87;63.70;102856.50;5093653;28;19912;-78
2024/01/30 00:06:13;;;;;;;;;;;;;;;2.71;64.48;102856.09;5097883;28;19916;-76
2024/01/30 00:09:00;;;;;;;;;;;;;;;2.74;63.77;102851.16;5100493;28;19912;-78
2024/01/30 00:11:52;;;;;;;;;;;;;;;2.79;63.16;102845.97;5101115;28;19912;-77
2024/01/30 00:14:44;;;;;;;;;;;;;;;2.87;63.29;102843.06;5096498;28;19916;-77
2024/01/30 00:17:36;;;;;;;;;;;;;;;2.79;62.86;102845.16;5094328;28;19916;-77
2024/01/30 00:20:28;;;;;;;;;;;;;;;2.79;62.66;102840.63;5098554;28;19919;-78
2024/01/30 00:23:20;;;;;;;;;;;;;;;2.80;63.09;102836.03;5095668;28;20388;-78
2024/01/30 00:26:12;;;;;;;;;;;;;;;2.79;63.60;102845.97;5093391;28;19912;-77
2024/01/30 00:29:01;;;;;;;;;;;;;;;2.63;63.77;102842.91;5097375;28;19912;-79
2024/01/30 00:31:53;;;;;;;;;;;;;;;2.60;63.95;102844.16;5094733;28;19915;-77
2024/01/30 00:34:41;;;;;;;;;;;;;;;2.55;64.41;102844.78;5098844;28;19915;-77
2024/01/30 00:37:31;;;;;;;;;;;;;;;2.60;64.67;102836.09;5095376;28;19916;-77
2024/01/30 00:40:20;;;;;;;;;;;;;;;2.62;64.71;102846.63;5099415;28;19911;-77
2024/01/30 00:43:12;;;;;;;;;;;;;;;2.46;65.24;102839.84;5097985;28;19912;-78
2024/01/30 00:46:04;;;;;;;;;;;;;;;2.44;65.29;102842.72;5096355;28;19916;-77
2024/01/30 00:48:56;;;;;;;;;;;;;;;2.44;65.81;102842.72;5094378;28;19915;-78
2024/01/30 00:51:46;;;;;;;;;;;;;;;2.41;65.83;102850.38;5098365;28;19916;-78
2024/01/30 00:54:38;;;;;;;;;;;;;;;2.40;66.41;102846.03;5096324;28;20302;-79
2024/01/30 00:57:27;;;;;;;;;;;;;;;2.49;67.07;102861.72;5093975;28;20292;-78
2024/01/30 01:00:19;;;;;;;;;;;;;;;2.50;67.22;102854.50;5097668;28;20400;-77
2024/01/30 01:03:09;;;;;;;;;;;;;;;2.42;67.52;102860.91;5093102;28;19920;-78
2024/01/30 01:06:01;;;;;;;;;;;;;;;2.43;67.99;102861.75;5091910;28;20296;-79
2024/01/30 01:08:50;;;;;;;;;;;;;;;2.34;68.33;102853.06;5095591;28;19911;-78
2024/01/30 01:11:40;;;;;;;;;;;;;;;2.26;68.84;102855.97;5093700;28;19916;-78
2024/01/30 01:14:29;;;;;;;;;;;;;;;2.27;69.18;102863.00;5097060;28;19916;-79
2024/01/30 01:17:18;;;;;;;;;;;;;;;2.19;69.72;102859.69;5094815;28;19911;-78
2024/01/30 01:20:10;;;;;;;;;;;;;;;2.20;70.16;102872.06;5093693;28;19911;-78
2024/01/30 01:23:03;;;;;;;;;;;;;;;2.11;70.41;102869.59;5096756;28;19916;-78
2024/01/30 01:25:55;;;;;;;;;;;;;;;2.15;70.44;102870.84;5094733;28;20300;-77
2024/01/30 01:28:47;;;;;;;;;;;;;;;2.15;70.46;102870.00;5092255;28;19912;-78
2024/01/30 01:31:39;;;;;;;;;;;;;;;2.23;70.23;102864.44;5096567;28;19916;-78
2024/01/30 01:34:31;;;;;;;;;;;;;;;2.31;70.47;102864.22;5094380;28;19916;-78
2024/01/30 01:37:22;;;;;;;;;;;;;;;2.27;69.88;102860.31;5095992;28;19915;-78
2024/01/30 01:40:12;;;;;;;;;;;;;;;2.40;70.86;102862.97;5096043;28;19912;-78
2024/01/30 01:43:06;;;;;;;;;;;;;;;2.48;70.65;102859.25;5093281;28;19912;-79
2024/01/30 01:45:58;;;;;;;;;;;;;;;2.55;70.87;102855.53;5095878;28;19924;-77
2024/01/30 01:48:50;;;;;;;;;;;;;;;2.52;69.33;102855.13;5094103;28;19912;-77
2024/01/30 01:51:43;;;;;;;;;;;;;;;2.58;70.00;102856.97;5092839;28;19912;-78
2024/01/30 01:54:35;;;;;;;;;;;;;;;2.65;70.14;102854.25;5096163;28;19920;-78
2024/01/30 01:57:27;;;;;;;;;;;;;;;2.73;68.62;102860.25;5093982;28;19912;-78
2024/01/30 02:00:19;;;;;;;;;;;;;;;2.85;68.57;102852.34;5097346;28;19912;-78
2024/01/30 02:03:12;;;;;;;;;;;;;;;2.89;68.79;102856.28;5094844;28;20377;-79
2024/01/30 02:06:05;;;;;;;;;;;;;;;2.74;69.13;102850.34;5092251;28;19949;-77
2024/01/30 02:08:55;;;;;;;;;;;;;;;2.81;68.72;102849.25;5096391;28;19912;-78
2024/01/30 02:11:46;;;;;;;;;;;;;;;2.64;69.90;102848.09;5094921;28;19912;-78
2024/01/30 02:14:46;;;;;;;;;;;;;;;2.65;69.04;102849.72;5091868;28;19924;-78
2024/01/30 02:17:38;;;;;;;;;;;;;;;2.44;69.45;102834.66;5093316;28;19920;-79
2024/01/30 02:20:31;;;;;;;;;;;;;;;2.32;69.48;102838.22;5092602;28;19912;-79
2024/01/30 02:23:25;;;;;;;;;;;;;;;2.36;69.23;102840.28;5096755;28;19916;-78
2024/01/30 02:26:17;;;;;;;;;;;;;;;2.42;68.64;102839.44;5097981;28;19916;-77
2024/01/30 02:29:09;;;;;;;;;;;;;;;2.32;68.76;102828.31;5095683;28;19916;-79
2024/01/30 02:32:01;;;;;;;;;;;;;;;2.28;69.85;102835.13;5099998;28;20655;-80
2024/01/30 02:34:50;;;;;;;;;;;;;;;2.36;69.14;102834.91;5096994;28;19915;-79
2024/01/30 02:37:42;;;;;;;;;;;;;;;2.36;68.57;102842.13;5096801;28;20296;-79
2024/01/30 02:40:34;;;;;;;;;;;;;;;2.36;68.75;102834.91;5098912;28;19915;-79
2024/01/30 02:43:26;;;;;;;;;;;;;;;2.38;67.59;102832.84;5096320;28;19920;-77
2024/01/30 02:46:18;;;;;;;;;;;;;;;2.09;68.13;102830.56;5099825;28;20381;-79
2024/01/30 02:49:11;;;;;;;;;;;;;;;1.92;69.11;102826.66;5097630;28;20368;-80
2024/01/30 02:52:00;;;;;;;;;;;;;;;1.99;68.49;102832.84;5096187;28;19912;-79
2024/01/30 02:54:52;;;;;;;;;;;;;;;1.86;69.10;102830.16;5102235;28;19916;-78
2024/01/30 02:57:44;;;;;;;;;;;;;;;1.99;69.33;102827.47;5096519;28;19912;-78
2024/01/30 03:00:36;;;;;;;;;;;;;;;1.87;70.33;102818.41;5101891;28;20384;-79
2024/01/30 03:03:26;;;;;;;;;;;;;;;1.98;69.88;102817.81;5098718;28;19916;-78
2024/01/30 03:06:15;;;;;;;;;;;;;;;2.15;68.75;102817.16;5096953;28;19912;-78
2024/01/30 03:09:07;;;;;;;;;;;;;;;2.17;67.54;102816.97;5100464;28;19915;-79
2024/01/30 03:11:59;;;;;;;;;;;;;;;2.42;67.18;102814.44;5097100;28;19915;-77
2024/01/30 03:14:51;;;;;;;;;;;;;;;2.43;66.60;102819.63;5094603;28;20292;-78
2024/01/30 03:17:48;;;;;;;;;;;;;;;2.50;66.15;102820.41;5095586;28;20300;-78
2024/01/30 03:20:40;;;;;;;;;;;;;;;2.47;65.70;102817.34;5096048;28;19912;-79
2024/01/30 03:23:32;;;;;;;;;;;;;;;2.52;64.92;102818.34;5100286;28;19912;-79
2024/01/30 03:26:24;;;;;;;;;;;;;;;2.43;64.80;102822.31;5097428;28;19912;-80
2024/01/30 03:29:16;;;;;;;;;;;;;;;2.39;65.33;102817.53;5095977;28;20380;-79
2024/01/30 03:32:06;;;;;;;;;;;;;;;2.24;65.86;102817.75;5098944;28;19920;-77
2024/01/30 03:34:57;;;;;;;;;;;;;;;2.12;66.85;102819.44;5096933;28;19916;-77
2024/01/30 03:37:47;;;;;;;;;;;;;;;1.98;67.72;102820.50;5094911;28;20562;-79
2024/01/30 03:40:39;;;;;;;;;;;;;;;1.77;66.72;102815.31;5098907;28;19916;-78
2024/01/30 03:43:31;;;;;;;;;;;;;;;1.61;67.74;102816.53;5096350;28;19916;-79
2024/01/30 03:46:23;;;;;;;;;;;;;;;1.59;68.48;102806.00;5093473;28;19915;-79
2024/01/30 03:49:15;;;;;;;;;;;;;;;1.64;67.79;102818.78;5099271;28;19912;-79
2024/01/30 03:52:07;;;;;;;;;;;;;;;1.61;68.48;102806.63;5096156;28;19911;-77
2024/01/30 03:54:59;;;;;;;;;;;;;;;1.53;68.57;102800.63;5099715;28;19916;-78
2024/01/30 03:57:48;;;;;;;;;;;;;;;1.52;68.73;102807.84;5096665;28;19920;-79
2024/01/30 04:00:40;;;;;;;;;;;;;;;1.53;69.40;102812.16;5095394;28;19912;-78
2024/01/30 04:03:32;;;;;;;;;;;;;;;1.55;68.77;102804.75;5098523;28;19912;-78
2024/01/30 04:06:24;;;;;;;;;;;;;;;1.49;69.41;102808.25;5096501;28;19915;-77
2024/01/30 04:09:16;;;;;;;;;;;;;;;1.51;70.18;102800.84;5094011;28;19916;-78
2024/01/30 04:12:08;;;;;;;;;;;;;;;1.60;69.55;102804.97;5097616;28;19911;-80
2024/01/30 04:15:00;;;;;;;;;;;;;;;1.54;68.72;102800.41;5095419;28;19916;-79
2024/01/30 04:17:52;;;;;;;;;;;;;;;1.45;69.65;102798.97;5094751;28;20300;-79
2024/01/30 04:20:43;;;;;;;;;;;;;;;1.45;70.03;102798.97;5096806;28;19912;-79
2024/01/30 04:23:35;;;;;;;;;;;;;;;1.32;70.41;102798.94;5094615;28;19912;-77
2024/01/30 04:26:27;;;;;;;;;;;;;;;1.17;70.09;102800.94;5097622;28;19915;-78
2024/01/30 04:29:19;;;;;;;;;;;;;;;1.19;71.48;102804.25;5095685;28;19915;-78
2024/01/30 04:32:11;;;;;;;;;;;;;;;1.27;71.26;102798.69;5093681;28;19912;-77
2024/01/30 04:35:03;;;;;;;;;;;;;;;1.24;71.32;102801.78;5097261;28;19920;-78
2024/01/30 04:37:54;;;;;;;;;;;;;;;1.28;72.35;102797.69;5095552;28;19916;-78
2024/01/30 04:40:46;;;;;;;;;;;;;;;1.40;72.96;102801.44;5098383;28;19912;-80
2024/01/30 04:43:38;;;;;;;;;;;;;;;1.34;71.31;102794.19;5096317;28;20369;-80
2024/01/30 04:46:28;;;;;;;;;;;;;;;1.32;70.87;102807.00;5093550;28;19912;-79
2024/01/30 04:49:19;;;;;;;;;;;;;;;1.35;70.92;102795.84;5097725;28;19912;-79
2024/01/30 04:52:09;;;;;;;;;;;;;;;1.33;71.96;102805.94;5096213;28;19915;-79
2024/01/30 04:55:01;;;;;;;;;;;;;;;1.43;71.65;102792.13;5092393;28;19916;-79
2024/01/30 04:57:53;;;;;;;;;;;;;;;1.49;72.03;102794.84;5094354;28;19916;-77
2024/01/30 05:00:42;;;;;;;;;;;;;;;1.46;71.26;102795.25;5095608;28;20552;-78
2024/01/30 05:03:35;;;;;;;;;;;;;;;1.48;70.86;102798.53;5093278;28;20372;-78
2024/01/30 05:06:30;;;;;;;;;;;;;;;1.52;70.94;102799.81;5096076;28;19912;-78
2024/01/30 05:09:22;;;;;;;;;;;;;;;1.38;71.03;102802.66;5094028;28;19912;-77
2024/01/30 05:12:14;;;;;;;;;;;;;;;1.45;71.25;102798.97;5099326;28;19916;-77
2024/01/30 05:15:06;;;;;;;;;;;;;;;1.44;71.60;102799.16;5097001;28;19920;-78
2024/01/30 05:17:55;;;;;;;;;;;;;;;1.43;71.08;102800.19;5095122;28;20369;-80
2024/01/30 05:20:47;;;;;;;;;;;;;;;1.51;70.78;102803.53;5097176;28;20292;-80
2024/01/30 05:23:37;;;;;;;;;;;;;;;1.43;71.42;102801.00;5101504;28;19920;-78
2024/01/30 05:26:31;;;;;;;;;;;;;;;1.47;72.01;102796.09;5099689;28;19916;-78
2024/01/30 05:29:23;;;;;;;;;;;;;;;1.38;70.85;102799.97;5097666;28;19912;-79
2024/01/30 05:32:15;;;;;;;;;;;;;;;1.35;70.84;102803.91;5096267;28;19912;-78
2024/01/30 05:35:07;;;;;;;;;;;;;;;1.42;70.27;102799.38;5094709;28;19917;-79
2024/01/30 05:37:59;;;;;;;;;;;;;;;1.35;70.07;102811.94;5096059;28;20316;-80
2024/01/30 05:40:49;;;;;;;;;;;;;;;1.27;69.81;102814.78;5094209;28;19916;-78
2024/01/30 05:43:41;;;;;;;;;;;;;;;1.30;69.39;102811.72;5091822;28;19912;-79
2024/01/30 05:46:33;;;;;;;;;;;;;;;1.36;69.70;102810.91;5095581;28;19920;-80
2024/01/30 05:49:25;;;;;;;;;;;;;;;1.37;69.80;102809.88;5100427;28;19916;-78
2024/01/30 05:52:17;;;;;;;;;;;;;;;1.35;69.82;102811.09;5097717;28;19916;-80
2024/01/30 05:55:09;;;;;;;;;;;;;;;1.23;69.36;102808.19;5095058;28;19920;-78
2024/01/30 05:58:01;;;;;;;;;;;;;;;1.24;69.44;102812.50;5090695;28;19911;-79
2024/01/30 06:00:53;;;;;;;;;;;;;;;1.20;68.91;102814.78;5100223;28;19912;-79
2024/01/30 06:03:43;;;;;;;;;;;;;;;1.19;69.38;102809.63;5079552;28;19916;-79
2024/01/30 06:06:35;;;;;;;;;;;;;;;1.17;69.23;102807.13;5102027;28;19916;-78
2024/01/30 06:09:27;;;;;;;;;;;;;;;1.15;69.03;102813.72;5099343;28;19912;-78
2024/01/30 06:12:19;;;;;;;;;;;;;;;1.04;68.76;102808.94;5103779;28;19912;-81
2024/01/30 06:15:11;;;;;;;;;;;;;;;-0.29;73.20;102808.28;5103139;28;20365;-78
2024/01/30 06:18:03;;;;;;;;;;;;;;;-0.81;76.68;102816.59;5096823;28;20377;-79
2024/01/30 06:20:53;;;;;;;;;;;;;;;-1.09;79.53;102824.47;5099914;28;19916;-77
2024/01/30 06:23:44;;;;;;;;;;;;;;;-1.14;80.74;102825.03;5097775;28;20280;-77
2024/01/30 06:26:37;;;;;;;;;;;;;;;-1.06;81.68;102816.91;5095259;28;19912;-76
2024/01/30 06:29:26;;;;;;;;;;;;;;;-1.56;81.57;102822.16;5098373;28;19912;-76
2024/01/30 06:32:18;;;;;;;;;;;;;;;-2.04;83.13;102828.81;5097161;28;19916;-78
2024/01/30 06:35:10;;;;;;;;;;;;;;;-1.97;85.49;102835.06;5094524;28;19916;-79
2024/01/30 06:38:02;;;;;;;;;;;;;;;-2.17;86.45;102834.75;5095528;28;19912;-78
2024/01/30 06:40:54;;;;;;;;;;;;;;;-2.28;87.25;102835.16;5096205;28;19912;-77
2024/01/30 06:43:46;;;;;;;;;;;;;;;-2.45;88.98;102828.31;5100379;28;20040;-79
2024/01/30 06:46:39;;;;;;;;;;;;;;;-1.96;90.45;102840.22;5097528;28;20376;-78
2024/01/30 06:49:31;;;;;;;;;;;;;;;-1.80;89.49;102836.59;5094818;28;19920;-79
2024/01/30 06:52:23;;;;;;;;;;;;;;;-1.98;89.86;102844.09;5094942;28;19916;-76
2024/01/30 06:55:15;;;;;;;;;;;;;;;-1.74;89.77;102841.19;5097554;28;19916;-78
2024/01/30 06:58:07;;;;;;;;;;;;;;;-1.41;91.25;102839.00;5095218;28;19911;-76
2024/01/30 07:00:54;;;;;;;;;;;;;;;-1.18;90.31;102845.09;5098250;28;19916;-77
2024/01/30 07:03:43;;;;;;;;;;;;;;;-1.28;89.32;102849.88;5093681;28;19912;-80
2024/01/30 07:06:30;;;;;;;;;;;;;;;-0.97;89.02;102852.34;5090541;28;19912;-76
2024/01/30 07:09:22;;;;;;;;;;;;;;;-1.06;87.82;102846.25;5097643;28;19913;-76
2024/01/30 07:12:14;;;;;;;;;;;;;;;-1.13;88.65;102849.88;5090506;28;19916;-77
2024/01/30 07:15:06;;;;;;;;;;;;;;;-1.07;87.48;102852.63;5097266;28;19920;-77
2024/01/30 07:17:59;;;;;;;;;;;;;;;-0.91;86.28;102856.91;5091996;28;19931;-78
2024/01/30 07:20:51;;;;;;;;;;;;;;;-1.41;85.26;102858.50;5095363;28;20526;-77
2024/01/30 07:23:43;;;;;;;;;;;;;;;-1.05;87.42;102852.44;5102121;28;19912;-80
2024/01/30 07:26:35;;;;;;;;;;;;;;;-0.87;86.57;102852.88;5097011;28;20304;-77
2024/01/30 07:29:27;;;;;;;;;;;;;;;-0.99;85.25;102863.22;5097869;28;19916;-78
2024/01/30 07:32:19;;;;;;;;;;;;;;;-1.22;85.61;102862.50;5098628;28;19916;-79
2024/01/30 07:35:11;;;;;;;;;;;;;;;-0.94;86.21;102858.13;5093167;28;20380;-78
2024/01/30 07:38:03;;;;;;;;;;;;;;;-0.70;86.82;102864.16;5089826;28;19926;-77
2024/01/30 07:40:52;;;;;;;;;;;;;;;-0.62;85.18;102859.56;5091820;28;20304;-79
2024/01/30 07:43:44;;;;;;;;;;;;;;;-0.59;86.54;102877.03;5086880;28;19912;-78
2024/01/30 07:46:36;;;;;;;;;;;;;;;-0.44;85.50;102865.28;5096887;28;20312;-83
2024/01/30 07:49:28;;;;;;;;;;;;;;;-0.42;85.68;102870.47;5096228;28;20316;-80
2024/01/30 07:52:20;;;;;;;;;;;;;;;-0.55;85.04;102868.44;5093441;28;19920;-79
2024/01/30 07:55:12;;;;;;;;;;;;;;;-0.62;84.30;102878.25;5096482;28;19916;-79
2024/01/30 07:58:04;;;;;;;;;;;;;;;-0.34;84.94;102877.50;5094413;28;20385;-79
2024/01/30 08:00:56;;;;;;;;;;;;;;;-0.25;84.64;102885.22;5101213;28;19912;-78
2024/01/30 08:03:46;;;;;;;;;;;;;;;-0.06;83.71;102884.59;5103304;28;19915;-78
2024/01/30 08:06:38;;;;;;;;;;;;;;;0.13;82.11;102893.81;5097244;28;19912;-77
2024/01/30 08:09:27;;;;;;;;;;;;;;;-0.03;82.78;102886.88;5095026;28;19924;-80
2024/01/30 08:12:17;;;;;;;;;;;;;;;0.10;84.55;102890.72;5087136;28;19912;-83
2024/01/30 08:15:08;;;;;;;;;;;;;;;0.74;83.87;102894.91;5091681;28;19920;-80
2024/01/30 08:17:57;;;;;;;;;;;;;;;0.65;80.90;102900.63;5090680;28;20365;-78
2024/01/30 08:20:49;;;;;;;;;;;;;;;-0.02;80.06;102893.06;5093438;28;19916;-79
2024/01/30 08:23:40;;;;;;;;;;;;;;;0.78;83.35;102892.66;5096441;28;20373;-79
2024/01/30 08:26:32;;;;;;;;;;;;;;;1.48;80.70;102897.72;5096418;28;19912;-80
2024/01/30 08:29:23;;;;;;;;;;;;;;;1.49;76.85;102896.72;5094302;28;19920;-78
2024/01/30 08:32:14;;;;;;;;;;;;;;;1.22;77.55;102887.72;5099436;28;19916;-79
2024/01/30 08:35:06;;;;;;;;;;;;;;;1.16;78.34;102895.75;5096414;28;19920;-79
2024/01/30 08:37:58;;;;;;;;;;;;;;;1.33;77.00;102894.38;5089515;28;19911;-79
2024/01/30 08:40:47;;;;;;;;;;;;;;;1.22;76.35;102890.41;5098456;28;19912;-79
2024/01/30 08:43:39;;;;;;;;;;;;;;;1.73;75.00;102890.78;5094727;28;19920;-80
2024/01/30 08:46:31;;;;;;;;;;;;;;;2.28;72.67;102896.88;5084627;28;19916;-78
2024/01/30 08:49:23;;;;;;;;;;;;;;;2.69;70.44;102895.81;5095279;28;19912;-77
2024/01/30 08:52:15;;;;;;;;;;;;;;;2.51;70.46;102902.63;5087880;28;19917;-77
2024/01/30 08:55:07;;;;;;;;;;;;;;;2.91;69.80;102902.56;5087315;28;19924;-77
2024/01/30 08:57:59;;;;;;;;;;;;;;;3.23;69.79;102898.97;5086613;28;19912;-78
2024/01/30 09:00:51;;;;;;;;;;;;;;;3.76;67.24;102896.00;5092659;28;19912;-78
2024/01/30 09:03:43;;;;;;;;;;;;;;;2.40;68.91;102897.03;5092683;28;19912;-78
2024/01/30 09:06:32;;;;;;;;;;;;;;;1.95;73.69;102893.31;5095018;28;19916;-79
2024/01/30 09:09:24;;;;;;;;;;;;;;;1.90;71.99;102893.09;5096373;28;20300;-79
2024/01/30 09:12:19;;;;;;;;;;;;;;;2.11;73.51;102901.81;5093391;28;19912;-78
2024/01/30 09:15:11;;;;;;;;;;;;;;;2.35;71.86;102905.72;5092835;28;19916;-77
2024/01/30 09:18:03;;;;;;;;;;;;;;;2.99;70.93;102918.47;5090401;28;19911;-78
2024/01/30 09:20:53;;;;;;;;;;;;;;;3.31;69.21;102920.22;5096408;28;19915;-77
2024/01/30 09:23:45;;;;;;;;;;;;;;;3.01;70.63;102917.22;5105612;28;20368;-78
2024/01/30 09:26:37;;;;;;;;;;;;;;;2.27;72.54;102908.63;5085986;28;19912;-78
2024/01/30 09:29:26;;;;;;;;;;;;;;;1.91;73.57;102910.84;5091975;28;20276;-77
2024/01/30 09:32:18;;;;;;;;;;;;;;;2.11;73.77;102917.91;5088987;28;19916;-77
2024/01/30 09:35:10;;;;;;;;;;;;;;;3.03;74.06;102914.31;5091812;28;19916;-78
2024/01/30 09:38:02;;;;;;;;;;;;;;;3.46;70.28;102914.56;5091955;28;20364;-80
2024/01/30 09:40:55;;;;;;;;;;;;;;;3.42;70.96;102922.25;5096277;28;19912;-76
2024/01/30 09:43:48;;;;;;;;;;;;;;;4.09;68.10;102923.53;5090367;28;19920;-80
2024/01/30 09:46:41;;;;;;;;;;;;;;;3.41;68.40;102917.91;5083717;28;19916;-78
2024/01/30 09:49:30;;;;;;;;;;;;;;;3.72;67.47;102919.00;5086903;28;19916;-76
2024/01/30 09:52:22;;;;;;;;;;;;;;;4.68;66.23;102914.97;5091760;28;19912;-78
2024/01/30 09:55:12;;;;;;;;;;;;;;;3.94;66.30;102919.50;5086455;28;19916;-77
2024/01/30 09:58:05;;;;;;;;;;;;;;;3.36;68.91;102923.09;5091937;28;19912;-78
2024/01/30 10:00:57;;;;;;;;;;;;;;;3.96;69.34;102912.88;5092446;28;20384;-78
2024/01/30 10:03:44;;;;;;;;;;;;;;;4.14;64.44;102917.50;5095569;28;19912;-78
2024/01/30 10:06:37;;;;;;;;;;;;;;;4.20;67.12;102914.75;5093376;28;20392;-78
2024/01/30 10:09:29;;;;;;;;;;;;;;;5.27;65.00;102918.09;5093918;28;20380;-79
2024/01/30 10:12:18;;;;;;;;;;;;;;;5.22;62.04;102924.16;5090184;28;19916;-78
2024/01/30 10:15:10;;;;;;;;;;;;;;;6.00;61.16;102911.50;5092978;28;19924;-78
2024/01/30 10:18:02;;;;;;;;;;;;;;;5.87;61.91;102911.72;5091194;28;20327;-78
2024/01/30 10:20:51;;;;;;;;;;;;;;;5.03;61.85;102915.22;5090751;28;19982;-78
2024/01/30 10:23:38;;;;;;;;;;;;;;;5.60;64.33;102916.63;5084293;28;20562;-80
2024/01/30 10:26:28;;;;;;;;;;;;;;;6.11;62.44;102917.16;5090203;28;19912;-79
2024/01/30 10:29:20;;;;;;;;;;;;;;;5.93;63.48;102909.97;5098258;28;19912;-82
2024/01/30 10:32:12;;;;;;;;;;;;;;;5.80;62.83;102905.53;5098992;28;19912;-83
2024/01/30 10:34:59;;;;;;;;;;;;;;;5.96;62.46;102907.63;5098320;28;20292;-82
2024/01/30 10:37:51;;;;;;;;;;;;;;;7.35;56.67;102897.88;5093083;28;19916;-80
2024/01/30 10:40:50;;;;;;;;;;;;;;;7.41;58.50;102896.94;5099134;28;19916;-82
2024/01/30 10:43:42;;;;;;;;;;;;;;;8.75;53.71;102897.91;5102799;28;20435;-83
2024/01/30 10:46:34;;;;;;;;;;;;;;;8.29;53.91;102882.78;5100716;28;19916;-82
2024/01/30 10:49:26;;;;;;;;;;;;;;;7.02;58.64;102882.31;5104885;28;19912;-84
2024/01/30 10:52:16;;;;;;;;;;;;;;;7.48;57.27;102875.94;5105998;28;19915;-82
2024/01/30 10:55:08;;;;;;;;;;;;;;;8.61;55.18;102874.91;5107747;28;19916;-82
2024/01/30 10:58:00;;;;;;;;;;;;;;;8.17;55.96;102868.53;5089108;28;20389;-83
2024/01/30 11:00:53;;;;;;;;;;;;;;;13.29;45.63;102876.03;5102778;28;20659;-82
2024/01/30 11:03:45;;;;;;;;;;;;;;;13.07;42.64;102856.41;5096115;28;19939;-82
2024/01/30 11:06:42;;;;;;;;;;;;;;;16.56;36.46;102864.31;5100256;28;19912;-82
2024/01/30 11:09:38;;;;;;;;;;;;;;;19.17;32.29;102859.47;5101425;28;19912;-80
2024/01/30 11:12:31;;;;;;;;;;;;;;;19.47;29.83;102855.81;5096829;28;19912;-83
2024/01/30 11:15:23;;;;;;;;;;;;;;;21.96;27.77;102856.78;5096920;28;19916;-83
2024/01/30 11:18:24;;;;;;;;;;;;;;;21.57;27.61;102848.97;5096396;28;19912;-84
2024/01/30 11:21:16;;;;;;;;;;;;;;;18.77;31.09;102847.69;5097623;28;19912;-81
2024/01/30 11:24:10;;;;;;;;;;;;;;;20.02;29.32;102844.91;5093473;28;20292;-82
2024/01/30 11:27:07;;;;;;;;;;;;;;;19.77;29.83;102839.41;5095045;28;19912;-81
2024/01/30 11:30:00;;;;;;;;;;;;;;;18.98;29.95;102834.94;5091243;28;20388;-83
2024/01/30 11:33:00;;;;;;;;;;;;;;;19.76;29.32;102837.81;5100560;28;19912;-81
2024/01/30 11:35:53;;;;;;;;;;;;;;;19.13;29.57;102822.66;5096082;28;19915;-82
2024/01/30 11:38:45;;;;;;;;;;;;;;;18.49;31.38;102824.19;5097191;28;20361;-82
2024/01/30 11:41:37;;;;;;;;;;;;;;;18.82;31.10;102828.25;5095444;28;19916;-81
2024/01/30 11:44:26;;;;;;;;;;;;;;;16.99;33.63;102815.41;5089032;28;20289;-83
2024/01/30 11:47:16;;;;;;;;;;;;;;;16.82;35.07;102812.47;5095986;28;20392;-80
2024/01/30 11:50:06;;;;;;;;;;;;;;;16.83;34.64;102805.03;5101839;28;19912;-80
2024/01/30 11:52:55;;;;;;;;;;;;;;;18.34;32.72;102812.44;5098624;28;20296;-83
2024/01/30 11:55:51;;;;;;;;;;;;;;;17.94;32.87;102808.81;5098995;28;19916;-81
2024/01/30 11:58:45;;;;;;;;;;;;;;;16.82;35.50;102804.22;5101837;28;19912;-83
2024/01/30 12:01:34;;;;;;;;;;;;;;;21.60;28.23;102804.78;5101437;28;19912;-82
2024/01/30 12:04:30;;;;;;;;;;;;;;;20.98;28.53;102792.88;5097300;28;19912;-81
2024/01/30 12:07:21;;;;;;;;;;;;;;;20.42;28.79;102786.66;5095209;28;19920;-82
2024/01/30 12:10:13;;;;;;;;;;;;;;;22.88;26.28;102776.75;5095596;28;19911;-81
2024/01/30 12:13:05;;;;;;;;;;;;;;;22.65;25.67;102775.59;5098584;28;19919;-80
2024/01/30 12:15:54;;;;;;;;;;;;;;;24.81;24.19;102772.50;5097132;28;19920;-83
2024/01/30 12:18:46;;;;;;;;;;;;;;;25.40;22.79;102772.25;5094380;28;19912;-82
2024/01/30 12:21:38;;;;;;;;;;;;;;;24.20;24.35;102761.91;5089503;28;19912;-82
2024/01/30 12:24:30;;;;;;;;;;;;;;;22.78;25.97;102752.25;5091562;28;19912;-82
2024/01/30 12:27:23;;;;;;;;;;;;;;;24.74;23.56;102755.66;5097251;28;19912;-83
2024/01/30 12:30:13;;;;;;;;;;;;;;;25.25;23.17;102748.06;5100940;28;19912;-82
2024/01/30 12:33:05;;;;;;;;;;;;;;;24.37;23.68;102746.84;5083431;28;19912;-82
2024/01/30 12:36:03;;;;;;;;;;;;;;;25.46;22.45;102743.72;5075644;28;19916;-82
2024/01/30 12:38:55;;;;;;;;;;;;;;;26.29;21.68;102739.31;5088774;28;19912;-82
2024/01/30 12:41:47;;;;;;;;;;;;;;;27.48;20.80;102735.00;5093693;28;19912;-82
2024/01/30 12:44:36;;;;;;;;;;;;;;;25.28;23.17;102725.84;5088591;28;19917;-82
2024/01/30 12:47:26;;;;;;;;;;;;;;;26.39;21.24;102724.75;5076193;28;19913;-83
2024/01/30 12:50:17;;;;;;;;;;;;;;;26.82;21.39;102720.56;5084772;28;19912;-82
2024/01/30 12:53:08;;;;;;;;;;;;;;;29.88;17.96;102715.34;5094561;28;20461;-83
2024/01/30 12:56:00;;;;;;;;;;;;;;;28.76;19.17;102708.97;5083934;28;19916;-80
2024/01/30 12:58:52;;;;;;;;;;;;;;;26.50;21.01;102696.19;5093814;28;20274;-81
2024/01/30 13:01:44;;;;;;;;;;;;;;;27.71;20.34;102693.75;5097864;28;19912;-81
2024/01/30 13:04:36;;;;;;;;;;;;;;;26.60;20.95;102695.53;5096105;28;19916;-81
2024/01/30 13:07:28;;;;;;;;;;;;;;;29.16;19.08;102688.31;5093639;28;19915;-81
2024/01/30 13:10:18;;;;;;;;;;;;;;;27.26;20.58;102682.84;5098935;28;19912;-80
2024/01/30 13:13:10;;;;;;;;;;;;;;;26.76;20.81;102673.84;5094929;28;19912;-81
2024/01/30 13:16:02;;;;;;;;;;;;;;;26.59;20.98;102672.41;5092588;28;19924;-79
2024/01/30 13:18:54;;;;;;;;;;;;;;;27.46;19.94;102671.09;5096595;28;20376;-82
2024/01/30 13:21:43;;;;;;;;;;;;;;;24.48;22.39;102665.22;5094598;28;19912;-81
2024/01/30 13:24:35;;;;;;;;;;;;;;;20.39;28.26;102652.72;5096367;28;19916;-81
2024/01/30 13:27:27;;;;;;;;;;;;;;;18.16;31.15;102662.03;5093659;28;19916;-82
2024/01/30 13:30:18;;;;;;;;;;;;;;;16.87;34.41;102660.41;5093967;28;19912;-81
2024/01/30 13:33:10;;;;;;;;;;;;;;;16.19;36.34;102653.88;5097147;28;19912;-81
2024/01/30 13:36:02;;;;;;;;;;;;;;;15.56;37.47;102658.38;5094676;28;20378;-80
2024/01/30 13:38:59;;;;;;;;;;;;;;;15.04;39.04;102654.00;5093063;28;20400;-82
2024/01/30 13:41:51;;;;;;;;;;;;;;;14.98;41.45;102650.56;5096312;28;20292;-81
2024/01/30 13:44:43;;;;;;;;;;;;;;;14.76;42.12;102653.06;5094159;28;19916;-81
2024/01/30 13:47:30;;;;;;;;;;;;;;;14.39;42.67;102657.38;5094387;28;19916;-81
2024/01/30 13:50:22;;;;;;;;;;;;;;;14.33;43.23;102650.31;5094513;28;19920;-79
2024/01/30 13:53:11;;;;;;;;;;;;;;;14.08;43.13;102654.19;5096286;28;20389;-83
2024/01/30 13:56:03;;;;;;;;;;;;;;;13.96;43.07;102651.06;5098980;28;19920;-82
2024/01/30 13:58:55;;;;;;;;;;;;;;;13.85;43.63;102659.66;5096443;28;19912;-79
2024/01/30 14:01:47;;;;;;;;;;;;;;;13.74;43.83;102656.19;5094705;28;19912;-81
2024/01/30 14:04:39;;;;;;;;;;;;;;;13.68;44.08;102649.16;5092219;28;19919;-81
2024/01/30 14:07:29;;;;;;;;;;;;;;;13.60;44.59;102650.59;5089801;28;20347;-80
2024/01/30 14:10:19;;;;;;;;;;;;;;;13.53;45.43;102646.56;5087232;28;20577;-80
2024/01/30 14:13:11;;;;;;;;;;;;;;;13.47;46.28;102650.44;5097895;28;19912;-80
2024/01/30 14:16:02;;;;;;;;;;;;;;;13.41;45.81;102654.34;5087711;28;19916;-80
2024/01/30 14:18:55;;;;;;;;;;;;;;;13.31;46.90;102652.47;5098902;28;20284;-81
2024/01/30 14:21:45;;;;;;;;;;;;;;;13.34;47.14;102654.66;5101383;28;20689;-81
2024/01/30 14:24:37;;;;;;;;;;;;;;;13.14;47.81;102660.28;5096920;28;19912;-79
2024/01/30 14:27:26;;;;;;;;;;;;;;;13.18;48.00;102653.16;5092748;28;19912;-80
2024/01/30 14:30:19;;;;;;;;;;;;;;;13.06;47.80;102652.66;5093305;28;19912;-80
2024/01/30 14:33:11;;;;;;;;;;;;;;;13.08;47.93;102647.72;5098107;28;20344;-80
2024/01/30 14:36:03;;;;;;;;;;;;;;;12.99;48.30;102649.44;5099023;28;19916;-80
2024/01/30 14:38:55;;;;;;;;;;;;;;;13.01;48.44;102656.25;5092053;28;19912;-81
2024/01/30 14:41:47;;;;;;;;;;;;;;;12.91;49.19;102660.94;5102057;28;19912;-79
2024/01/30 14:44:40;;;;;;;;;;;;;;;13.08;48.85;102655.94;5093354;28;19920;-79
2024/01/30 14:47:27;;;;;;;;;;;;;;;12.93;49.56;102654.13;5098168;28;20352;-80